createdAt,value
2023-04-18T00:00:56.458Z,14.20
2023-04-18T00:05:59.354Z,14.13
2023-04-18T00:11:01.061Z,11.57
2023-04-18T00:16:02.772Z,17.42
2023-04-18T00:21:04.895Z,13.20
2023-04-18T00:26:06.691Z,12.02
2023-04-18T00:31:08.663Z,11.60
2023-04-18T00:36:10.836Z,11.70
2023-04-18T00:41:12.672Z,14.23
2023-04-18T00:46:14.654Z,14.63
2023-04-18T00:51:17.171Z,20.40
2023-04-18T00:56:19.250Z,15.55
2023-04-18T01:01:21.335Z,12.90
2023-04-18T01:06:23.605Z,20.73
2023-04-18T01:11:25.642Z,18.30
2023-04-18T01:16:29.165Z,18.45
2023-04-18T01:21:33.983Z,19.10
2023-04-18T01:26:35.838Z,16.77
2023-04-18T01:31:40.993Z,17.55
2023-04-18T01:36:42.706Z,18.48
2023-04-18T01:41:46.500Z,15.87
2023-04-18T01:46:48.325Z,15.70
2023-04-18T01:51:50.024Z,16.00
2023-04-18T01:56:51.735Z,15.27
2023-04-18T02:01:53.556Z,17.42
2023-04-18T02:06:55.353Z,16.02
2023-04-18T02:11:59.380Z,15.98
2023-04-18T02:17:01.272Z,15.45
2023-04-18T02:22:03.038Z,15.13
2023-04-18T02:27:06.579Z,14.38
2023-04-18T02:32:09.207Z,14.57
2023-04-18T02:37:11.602Z,16.70
2023-04-18T02:42:15.516Z,11.55
2023-04-18T02:47:17.486Z,13.65
2023-04-18T02:52:21.404Z,14.57
2023-04-18T02:57:23.226Z,14.95
2023-04-18T03:02:33.380Z,13.45
2023-04-18T03:07:44.412Z,15.85
2023-04-18T03:12:47.602Z,10.50
2023-04-18T03:17:51.615Z,12.18
2023-04-18T03:22:55.947Z,12.52
2023-04-18T03:33:05.202Z,15.75
2023-04-18T03:43:13.164Z,17.05
2023-04-18T03:48:15.173Z,16.05
2023-04-18T03:53:19.029Z,18.50
2023-04-18T03:58:23.645Z,19.42
2023-04-18T04:03:27.834Z,18.98
2023-04-18T04:08:30.892Z,19.00
2023-04-18T04:13:32.664Z,17.02
2023-04-18T04:18:34.535Z,18.50
2023-04-18T04:23:38.022Z,18.17
2023-04-18T04:28:40.128Z,17.17
2023-04-18T04:33:43.573Z,19.33
2023-04-18T04:38:52.323Z,17.77
2023-04-18T04:43:59.516Z,19.73
2023-04-18T04:49:07.235Z,19.35
2023-04-18T04:54:09.261Z,17.83
2023-04-18T04:59:11.336Z,20.52
2023-04-18T05:04:19.553Z,18.80
2023-04-18T05:09:22.117Z,18.98
2023-04-18T05:14:23.891Z,17.90
2023-04-18T05:19:25.717Z,16.92
2023-04-18T05:24:27.436Z,17.15
2023-04-18T05:29:29.093Z,15.50
2023-04-18T05:34:31.777Z,17.70
2023-04-18T05:39:33.606Z,18.73
2023-04-18T05:44:36.588Z,15.25
2023-04-18T05:49:38.370Z,17.02
2023-04-18T05:54:40.442Z,14.68
2023-04-18T05:59:42.325Z,17.35
2023-04-18T06:04:44.198Z,15.68
2023-04-18T06:09:46.070Z,13.57
2023-04-18T06:14:47.755Z,13.73
2023-04-18T06:19:49.452Z,12.27
2023-04-18T06:24:51.157Z,11.60
2023-04-18T06:29:52.887Z,12.73
2023-04-18T06:34:54.585Z,11.98
2023-04-18T06:39:56.490Z,12.48
2023-04-18T06:44:58.232Z,10.43
2023-04-18T06:49:59.914Z,10.60
2023-04-18T06:55:01.582Z,8.45
2023-04-18T07:00:05.472Z,9.13
2023-04-18T07:05:08.898Z,8.38
2023-04-18T07:10:11.611Z,8.02
2023-04-18T07:15:13.764Z,8.15
2023-04-18T07:20:16.134Z,6.70
2023-04-18T07:25:17.944Z,8.77
2023-04-18T07:30:19.986Z,7.80
2023-04-18T07:35:21.883Z,9.15
2023-04-18T07:40:23.568Z,7.72
2023-04-18T07:45:25.731Z,8.85
2023-04-18T07:50:27.882Z,7.90
2023-04-18T07:55:30.628Z,7.72
2023-04-18T08:00:32.758Z,9.00
2023-04-18T08:05:34.812Z,8.23
2023-04-18T08:10:37.359Z,8.15
2023-04-18T08:15:42.455Z,9.43
2023-04-18T08:20:44.240Z,9.18
2023-04-18T08:25:46.007Z,8.05
2023-04-18T08:30:49.078Z,9.20
2023-04-18T08:35:54.302Z,8.02
2023-04-18T08:40:56.051Z,7.15
2023-04-18T08:45:59.897Z,7.85
2023-04-18T08:51:02.217Z,7.13
2023-04-18T08:56:05.686Z,7.55
2023-04-18T09:01:07.864Z,6.70
2023-04-18T09:06:19.392Z,7.15
2023-04-18T09:11:29.206Z,9.10
2023-04-18T09:16:46.618Z,8.18
2023-04-18T09:22:01.861Z,7.00
2023-04-18T09:27:11.947Z,7.43
2023-04-18T09:32:29.265Z,9.45
2023-04-18T09:37:31.254Z,8.30
2023-04-18T09:42:37.094Z,8.32
2023-04-18T09:47:39.828Z,7.30
2023-04-18T09:52:42.859Z,7.00
2023-04-18T09:57:47.133Z,7.20
2023-04-18T10:02:57.888Z,8.38
2023-04-18T10:07:59.999Z,10.93
2023-04-18T10:13:02.860Z,8.88
2023-04-18T10:18:15.189Z,7.72
2023-04-18T10:23:36.484Z,9.68
2023-04-18T10:28:58.000Z,7.47
2023-04-18T10:39:22.405Z,8.60
2023-04-18T10:44:24.298Z,9.13
2023-04-18T10:49:34.500Z,8.82
2023-04-18T10:54:47.354Z,8.98
2023-04-18T10:59:50.919Z,8.18
2023-04-18T11:05:01.589Z,8.75
2023-04-18T11:10:05.208Z,8.15
2023-04-18T11:15:21.310Z,9.02
2023-04-18T11:20:23.206Z,8.35
2023-04-18T11:25:31.867Z,9.32
2023-04-18T11:30:40.936Z,7.10
2023-04-18T11:35:44.827Z,7.60
2023-04-18T11:40:50.092Z,40.63
2023-04-18T11:45:53.527Z,12.38
2023-04-18T11:50:55.348Z,8.65
2023-04-18T11:55:57.023Z,10.82
2023-04-18T12:00:59.808Z,8.70
2023-04-18T12:06:01.662Z,8.55
2023-04-18T12:11:03.486Z,9.82
2023-04-18T12:16:07.878Z,8.93
2023-04-18T12:21:10.412Z,9.15
2023-04-18T12:26:21.166Z,9.50
2023-04-18T12:31:23.078Z,8.70
2023-04-18T12:36:25.373Z,8.65
2023-04-18T12:41:27.112Z,6.50
2023-04-18T12:46:28.881Z,8.32
2023-04-18T12:51:31.427Z,7.30
2023-04-18T12:56:33.137Z,7.80
2023-04-18T13:01:35.037Z,7.30
2023-04-18T13:06:37.731Z,6.00
2023-04-18T13:11:39.422Z,6.65
2023-04-18T13:16:43.489Z,7.30
2023-04-18T13:21:46.852Z,7.10
2023-04-18T13:26:50.146Z,8.63
2023-04-18T13:31:51.834Z,9.32
2023-04-18T13:36:53.585Z,7.80
2023-04-18T13:41:55.735Z,7.65
2023-04-18T13:46:57.925Z,7.50
2023-04-18T13:51:59.753Z,7.30
2023-04-18T13:57:03.188Z,10.32
2023-04-18T14:02:05.633Z,7.70
2023-04-18T14:07:08.195Z,6.85
2023-04-18T14:12:10.319Z,9.40
2023-04-18T14:17:12.230Z,8.40
2023-04-18T14:22:14.179Z,8.90
2023-04-18T14:27:16.007Z,9.48
2023-04-18T14:32:17.913Z,10.57
2023-04-18T14:37:19.813Z,14.13
2023-04-18T14:42:21.838Z,9.88
2023-04-18T14:47:24.402Z,10.68
2023-04-18T14:52:26.251Z,12.25
2023-04-18T14:57:29.973Z,10.35
2023-04-18T15:02:31.892Z,13.95
2023-04-18T15:07:34.373Z,14.90
2023-04-18T15:12:36.117Z,12.93
2023-04-18T15:17:37.814Z,14.13
2023-04-18T15:22:39.525Z,13.75
2023-04-18T15:27:41.232Z,14.50
2023-04-18T15:32:44.079Z,14.75
2023-04-18T15:37:45.850Z,14.07
2023-04-18T15:42:49.378Z,15.63
2023-04-18T15:47:51.542Z,15.15
2023-04-18T15:52:53.321Z,17.05
2023-04-18T15:57:55.439Z,19.80
2023-04-18T16:02:57.219Z,16.88
2023-04-18T16:07:59.426Z,19.45
2023-04-18T16:13:02.279Z,16.95
2023-04-18T16:18:04.431Z,31.70
2023-04-18T16:23:06.439Z,16.40
2023-04-18T16:28:08.751Z,16.48
2023-04-18T16:33:11.144Z,15.35
2023-04-18T16:38:13.069Z,18.42
2023-04-18T16:43:14.996Z,18.38
2023-04-18T16:48:16.856Z,17.77
2023-04-18T16:53:18.742Z,19.05
2023-04-18T16:58:21.572Z,17.85
2023-04-18T17:03:23.536Z,16.90
2023-04-18T17:08:27.070Z,16.83
2023-04-18T17:13:31.326Z,18.57
2023-04-18T17:18:33.268Z,16.48
2023-04-18T17:23:35.055Z,17.98
2023-04-18T17:28:37.077Z,17.63
2023-04-18T17:33:38.837Z,15.35
2023-04-18T17:38:40.744Z,16.30
2023-04-18T17:43:42.978Z,16.20
2023-04-18T17:48:44.726Z,17.60
2023-04-18T17:53:46.736Z,16.88
2023-04-18T17:58:49.162Z,17.15
2023-04-18T18:03:53.528Z,15.32
2023-04-18T18:08:55.965Z,16.95
2023-04-18T18:13:57.718Z,15.50
2023-04-18T18:18:59.586Z,13.55
2023-04-18T18:24:01.280Z,19.05
2023-04-18T18:29:09.460Z,20.23
2023-04-18T18:34:11.536Z,15.82
2023-04-18T18:39:14.756Z,15.10
2023-04-18T18:44:16.807Z,12.52
2023-04-18T18:49:18.640Z,12.32
2023-04-18T18:54:20.583Z,11.90
2023-04-18T18:59:22.441Z,13.73
2023-04-18T19:04:24.503Z,13.70
2023-04-18T19:09:26.432Z,14.75
2023-04-18T19:14:28.196Z,12.80
2023-04-18T19:19:30.008Z,13.98
2023-04-18T19:24:31.977Z,12.60
2023-04-18T19:29:36.034Z,12.80
2023-04-18T19:34:38.021Z,12.50
2023-04-18T19:39:39.772Z,12.07
2023-04-18T19:44:41.878Z,12.02
2023-04-18T19:49:44.315Z,14.07
2023-04-18T19:54:46.159Z,15.65
2023-04-18T19:59:47.993Z,12.05
2023-04-18T20:04:50.093Z,12.57
2023-04-18T20:09:55.173Z,12.13
2023-04-18T20:14:58.712Z,11.27
2023-04-18T20:20:01.079Z,11.40
2023-04-18T20:25:03.006Z,12.15
2023-04-18T20:30:05.590Z,12.68
2023-04-18T20:35:08.559Z,11.82
2023-04-18T20:40:11.379Z,10.73
2023-04-18T20:45:13.727Z,10.65
2023-04-18T20:50:18.158Z,10.10
2023-04-18T20:55:20.130Z,10.73
2023-04-18T21:00:22.140Z,9.95
2023-04-18T21:05:24.114Z,10.68
2023-04-18T21:10:26.476Z,9.32
2023-04-18T21:15:28.247Z,10.80
2023-04-18T21:20:29.983Z,12.50
2023-04-18T21:25:31.768Z,9.15
2023-04-18T21:30:33.953Z,12.18
2023-04-18T21:35:35.710Z,9.98
2023-04-18T21:40:37.705Z,8.57
2023-04-18T21:45:39.451Z,9.85
2023-04-18T21:50:42.983Z,7.35
2023-04-18T21:55:44.759Z,7.67
2023-04-18T22:00:46.535Z,9.25
2023-04-18T22:05:48.428Z,8.68
2023-04-18T22:10:54.955Z,9.60
2023-04-18T22:15:58.250Z,7.97
2023-04-18T22:21:01.460Z,9.73
2023-04-18T22:26:03.479Z,12.32
2023-04-18T22:31:05.659Z,11.23
2023-04-18T22:36:08.098Z,9.88
2023-04-18T22:41:10.240Z,11.65
2023-04-18T22:46:12.422Z,12.68
2023-04-18T22:51:14.908Z,10.43
2023-04-18T22:56:16.851Z,11.40
2023-04-18T23:01:18.794Z,9.85
2023-04-18T23:06:20.980Z,9.73
2023-04-18T23:11:22.892Z,10.27
2023-04-18T23:16:24.753Z,8.48
2023-04-18T23:21:27.803Z,8.85
2023-04-18T23:26:29.632Z,8.18
2023-04-18T23:31:34.664Z,6.68
2023-04-18T23:36:37.211Z,7.85
2023-04-18T23:41:38.966Z,9.25
2023-04-18T23:46:40.775Z,12.02
2023-04-18T23:51:42.585Z,6.82
2023-04-18T23:56:44.355Z,8.18
